Time;durP1;ratioP1;P1;durP2;ratioP2;P2;SDS_P1;SDS_P2;PMS_P1;PMS_P2;Temp;Humidity;BMP_temperature;BMP_pressure;BME280_temperature;BME280_humidity;BME280_pressure;Samples;Min_cycle;Max_cycle;Signal;HPM_P1;HPM_P2
2021/06/04 00:00:39;;;;;;;9.53;8.73;;;20.90;32.40;;;;;;4973638;28;20213;-76
2021/06/04 00:03:21;;;;;;;9.33;8.43;;;20.90;32.40;;;;;;4956502;28;20236;-76
2021/06/04 00:05:49;;;;;;;8.40;7.60;;;20.90;32.40;;;;;;4973491;28;20514;-76
2021/06/04 00:08:17;;;;;;;9.13;7.63;;;20.90;32.40;;;;;;4973840;28;20420;-76
2021/06/04 00:10:56;;;;;;;8.93;8.07;;;20.90;32.30;;;;;;4973718;28;20484;-76
2021/06/04 00:13:29;;;;;;;9.27;8.50;;;20.90;32.30;;;;;;4973596;28;20425;-77
2021/06/04 00:16:03;;;;;;;8.97;8.20;;;20.90;32.30;;;;;;4973244;28;20410;-77
2021/06/04 00:18:29;;;;;;;8.87;7.77;;;20.90;32.30;;;;;;4973578;28;20428;-77
2021/06/04 00:20:56;;;;;;;8.87;8.07;;;20.80;32.90;;;;;;4973545;28;20418;-76
2021/06/04 00:23:22;;;;;;;8.97;8.20;;;20.80;32.20;;;;;;4973365;28;20442;-76
2021/06/04 00:25:47;;;;;;;9.23;7.37;;;20.80;32.20;;;;;;4973225;28;20476;-76
2021/06/04 00:28:13;;;;;;;7.83;7.17;;;20.90;32.30;;;;;;4973448;28;20422;-77
2021/06/04 00:30:39;;;;;;;8.87;8.07;;;20.80;32.20;;;;;;4973207;28;20199;-77
2021/06/04 00:33:06;;;;;;;7.80;7.20;;;20.90;32.30;;;;;;4973169;28;20438;-77
2021/06/04 00:35:35;;;;;;;7.20;6.70;;;20.80;32.20;;;;;;4973064;28;20414;-77
2021/06/04 00:38:00;;;;;;;8.40;7.70;;;20.90;32.20;;;;;;4973199;28;20417;-77
2021/06/04 00:40:31;;;;;;;8.60;7.90;;;20.80;32.20;;;;;;4973145;28;20442;-77
2021/06/04 00:42:57;;;;;;;9.20;8.40;;;20.90;32.20;;;;;;4972906;28;20206;-76
2021/06/04 00:45:28;;;;;;;8.03;7.33;;;20.80;32.20;;;;;;4972861;28;21045;-76
2021/06/04 00:47:54;;;;;;;8.27;7.47;;;20.80;32.20;;;;;;4972948;28;20421;-77
2021/06/04 00:50:32;;;;;;;8.80;8.03;;;20.80;32.20;;;;;;4972996;28;20465;-77
2021/06/04 00:52:59;;;;;;;10.20;7.53;;;20.80;32.80;;;;;;4973028;28;20457;-76
2021/06/04 00:55:26;;;;;;;7.53;6.90;;;20.80;32.10;;;;;;4972638;28;20418;-76
2021/06/04 00:57:51;;;;;;;8.13;7.60;;;20.80;32.10;;;;;;4972861;28;20422;-76
2021/06/04 01:00:26;;;;;;;8.33;7.50;;;20.80;32.20;;;;;;4973022;28;20422;-76
2021/06/04 01:02:53;;;;;;;9.30;8.33;;;20.80;32.10;;;;;;4973844;28;20554;-77
2021/06/04 01:05:22;;;;;;;8.73;7.83;;;20.80;32.10;;;;;;4976685;28;20410;-77
2021/06/04 01:08:16;;;;;;;8.13;7.37;;;20.80;32.10;;;;;;4976760;28;20414;-76
2021/06/04 01:10:56;;;;;;;7.53;6.93;;;20.80;32.10;;;;;;4976760;28;20464;-76
2021/06/04 01:13:32;;;;;;;7.50;6.90;;;20.80;32.10;;;;;;4976604;28;21063;-77
2021/06/04 01:16:28;;;;;;;8.53;7.83;;;20.80;32.10;;;;;;4976500;28;20429;-77
2021/06/04 01:19:26;;;;;;;10.13;8.20;;;20.80;32.10;;;;;;4970924;28;20499;-76
2021/06/04 01:21:57;;;;;;;8.27;7.50;;;20.80;32.00;;;;;;4976477;28;20509;-77
2021/06/04 01:24:32;;;;;;;7.57;6.97;;;20.80;32.10;;;;;;4976638;28;20807;-77
2021/06/04 01:27:07;;;;;;;8.33;7.67;;;20.80;32.10;;;;;;4976137;28;20452;-77
2021/06/04 01:29:36;;;;;;;8.17;7.40;;;20.80;32.10;;;;;;4976446;28;20507;-77
2021/06/04 01:32:27;;;;;;;8.40;7.17;;;20.80;32.10;;;;;;4976337;28;20501;-77
2021/06/04 01:35:00;;;;;;;7.03;6.53;;;20.80;32.10;;;;;;4976298;28;20781;-77
2021/06/04 01:37:33;;;;;;;6.90;6.30;;;20.70;31.90;;;;;;4976165;28;20453;-77
2021/06/04 01:40:13;;;;;;;6.97;6.37;;;20.80;32.00;;;;;;4976262;28;20406;-77
2021/06/04 01:42:42;;;;;;;8.03;7.30;;;20.70;31.90;;;;;;4976059;28;20460;-77
2021/06/04 01:45:26;;;;;;;7.20;6.60;;;20.70;31.90;;;;;;4975962;28;20426;-77
2021/06/04 01:48:00;;;;;;;7.20;6.70;;;20.70;31.90;;;;;;4976049;28;20556;-78
2021/06/04 01:50:29;;;;;;;7.03;6.53;;;20.70;31.90;;;;;;4976039;28;20461;-77
2021/06/04 01:52:59;;;;;;;7.67;6.97;;;20.70;31.90;;;;;;4975998;28;20430;-78
2021/06/04 01:55:32;;;;;;;7.63;6.93;;;20.70;31.90;;;;;;4975809;28;20410;-77
2021/06/04 01:58:04;;;;;;;7.37;6.67;;;20.70;31.90;;;;;;4975910;28;20416;-77
2021/06/04 02:00:35;;;;;;;7.53;7.03;;;20.80;31.90;;;;;;4975844;28;20497;-77
2021/06/04 02:03:01;;;;;;;7.73;7.07;;;20.70;31.80;;;;;;4975774;28;20534;-77
2021/06/04 02:05:34;;;;;;;6.97;6.40;;;20.70;31.90;;;;;;4975569;28;20501;-77
2021/06/04 02:08:00;;;;;;;7.90;7.10;;;20.70;31.90;;;;;;4975709;28;20265;-77
2021/06/04 02:10:31;;;;;;;6.70;6.13;;;20.70;31.80;;;;;;4975518;28;20560;-77
2021/06/04 02:12:57;;;;;;;6.97;5.93;;;20.70;31.90;;;;;;4975777;28;20426;-77
2021/06/04 02:15:31;;;;;;;7.33;6.73;;;20.70;31.90;;;;;;4975356;28;20452;-76
2021/06/04 02:18:15;;;;;;;7.73;7.03;;;20.70;31.80;;;;;;4975666;28;20410;-76
2021/06/04 02:20:42;;;;;;;6.40;5.90;;;20.70;31.80;;;;;;4976214;28;20410;-75
2021/06/04 02:23:30;;;;;;;6.30;5.80;;;20.70;31.90;;;;;;4975501;28;20994;-76
2021/06/04 02:26:11;;;;;;;7.47;6.70;;;20.70;31.80;;;;;;4976550;28;20432;-76
2021/06/04 02:28:54;;;;;;;6.97;6.47;;;20.70;31.80;;;;;;4976552;28;20410;-77
2021/06/04 02:31:30;;;;;;;7.27;6.57;;;20.70;31.80;;;;;;4976168;28;20828;-77
2021/06/04 02:34:26;;;;;;;6.30;5.70;;;20.70;31.80;;;;;;4975431;28;20461;-76
2021/06/04 02:37:10;;;;;;;8.03;7.40;;;20.70;31.80;;;;;;4957613;28;20493;-76
2021/06/04 02:39:46;;;;;;;7.27;6.77;;;20.70;31.80;;;;;;4975153;28;20498;-76
2021/06/04 02:42:15;;;;;;;7.60;6.90;;;20.70;31.80;;;;;;4975112;28;20431;-76
2021/06/04 02:44:57;;;;;;;6.80;6.30;;;20.70;31.80;;;;;;4975042;28;20406;-76
2021/06/04 02:47:47;;;;;;;6.23;5.83;;;20.70;31.80;;;;;;4974942;28;20413;-76
2021/06/04 02:50:28;;;;;;;7.03;6.43;;;20.70;31.80;;;;;;4974918;28;20488;-77
2021/06/04 02:52:54;;;;;;;6.50;5.90;;;20.70;31.70;;;;;;4974967;28;20438;-77
2021/06/04 02:55:30;;;;;;;6.40;5.90;;;20.70;31.80;;;;;;4974827;28;20419;-76
2021/06/04 02:57:55;;;;;;;6.67;6.17;;;20.70;31.70;;;;;;4974729;28;20544;-77
2021/06/04 03:00:29;;;;;;;6.77;6.20;;;20.70;31.70;;;;;;4973521;28;20509;-76
2021/06/04 03:02:55;;;;;;;5.90;5.40;;;20.70;31.70;;;;;;4974703;28;20234;-77
2021/06/04 03:05:33;;;;;;;6.70;6.10;;;20.70;31.80;;;;;;4974564;28;20442;-76
2021/06/04 03:08:00;;;;;;;8.13;7.43;;;20.70;31.80;;;;;;4974619;28;20174;-76
2021/06/04 03:10:40;;;;;;;7.33;6.63;;;20.70;31.70;;;;;;4970456;28;20454;-76
2021/06/04 03:13:10;;;;;;;6.93;6.43;;;20.70;31.70;;;;;;4974102;28;20848;-77
2021/06/04 03:15:49;;;;;;;7.20;6.50;;;20.70;31.70;;;;;;4974077;28;21031;-77
2021/06/04 03:18:21;;;;;;;6.50;5.93;;;20.70;31.70;;;;;;4971883;28;20640;-76
2021/06/04 03:20:48;;;;;;;6.93;6.30;;;20.70;31.70;;;;;;4970607;28;20935;-76
2021/06/04 03:23:17;;;;;;;6.60;6.10;;;20.70;31.70;;;;;;4974148;28;20429;-76
2021/06/04 03:25:46;;;;;;;6.00;5.43;;;20.70;31.70;;;;;;4967103;28;20450;-77
2021/06/04 03:28:17;;;;;;;6.37;5.87;;;20.70;31.70;;;;;;4970920;28;20426;-78
2021/06/04 03:30:45;;;;;;;6.70;6.20;;;20.70;31.70;;;;;;4974011;28;20879;-77
2021/06/04 03:33:14;;;;;;;6.10;5.60;;;20.70;31.70;;;;;;4970960;28;20442;-76
2021/06/04 03:35:40;;;;;;;6.70;6.10;;;20.70;31.70;;;;;;4967818;28;20446;-77
2021/06/04 03:38:06;;;;;;;7.33;6.50;;;20.70;31.70;;;;;;4970269;28;20426;-77
2021/06/04 03:40:33;;;;;;;6.40;5.97;;;20.70;31.80;;;;;;4972020;28;20179;-77
2021/06/04 03:43:02;;;;;;;6.80;6.30;;;20.70;31.70;;;;;;4971448;28;20465;-77
2021/06/04 03:45:33;;;;;;;5.90;5.50;;;20.70;31.70;;;;;;4971226;28;20429;-77
2021/06/04 03:47:59;;;;;;;5.87;5.47;;;20.70;31.70;;;;;;4973633;28;20422;-77
2021/06/04 03:50:25;;;;;;;6.53;6.00;;;20.70;31.70;;;;;;4973572;28;20450;-76
2021/06/04 03:52:50;;;;;;;5.80;5.40;;;20.70;31.70;;;;;;4973556;28;20815;-78
2021/06/04 03:55:21;;;;;;;6.53;6.03;;;20.70;31.70;;;;;;4972916;28;20187;-77
2021/06/04 03:57:49;;;;;;;6.67;6.07;;;20.70;32.20;;;;;;4971494;28;20250;-77
2021/06/04 04:00:38;;;;;;;8.53;7.30;;;20.70;32.50;;;;;;4973977;28;20428;-80
2021/06/04 04:03:05;;;;;;;8.73;7.10;;;20.80;32.90;;;;;;4960763;28;20500;-74
2021/06/04 04:05:31;;;;;;;7.10;6.60;;;20.80;34.00;;;;;;4973524;28;20429;-75
2021/06/04 04:07:57;;;;;;;7.70;7.00;;;20.80;33.10;;;;;;4973492;28;20409;-76
2021/06/04 04:10:25;;;;;;;7.80;6.40;;;20.80;32.90;;;;;;4973491;28;20465;-77
2021/06/04 04:12:52;;;;;;;8.80;6.23;;;20.90;32.80;;;;;;4968905;28;20198;-77
2021/06/04 04:15:18;;;;;;;7.50;6.80;;;20.90;33.20;;;;;;4972958;28;20418;-76
2021/06/04 04:17:49;;;;;;;8.80;7.10;;;21.00;34.10;;;;;;4973068;28;20485;-77
2021/06/04 04:20:23;;;;;;;7.73;7.03;;;21.00;34.40;;;;;;4973402;28;20497;-78
2021/06/04 04:22:49;;;;;;;7.17;6.57;;;21.00;34.20;;;;;;4934876;29;20436;-77
2021/06/04 04:25:15;;;;;;;7.50;6.90;;;21.00;34.50;;;;;;4934619;29;20432;-78
2021/06/04 04:27:41;;;;;;;8.30;7.33;;;21.10;34.60;;;;;;4942097;28;20337;-77
2021/06/04 04:30:12;;;;;;;6.97;5.97;;;21.00;34.30;;;;;;4967462;28;20195;-77
2021/06/04 04:32:38;;;;;;;7.13;6.53;;;21.00;34.00;;;;;;4964104;28;20965;-77
2021/06/04 04:35:07;;;;;;;7.17;6.50;;;21.10;33.90;;;;;;4972855;28;20778;-78
2021/06/04 04:37:33;;;;;;;7.77;6.97;;;21.10;34.30;;;;;;4968604;28;20426;-78
2021/06/04 04:39:59;;;;;;;7.17;6.60;;;21.10;34.20;;;;;;4972697;28;20855;-78
2021/06/04 04:42:25;;;;;;;7.60;6.40;;;21.10;34.70;;;;;;4970871;28;20205;-79
2021/06/04 04:44:51;;;;;;;8.60;6.63;;;21.10;34.90;;;;;;4972380;28;20221;-77
2021/06/04 04:47:21;;;;;;;8.00;6.20;;;21.10;35.00;;;;;;4972956;28;20414;-77
2021/06/04 04:49:47;;;;;;;6.90;6.40;;;21.10;35.10;;;;;;4972678;28;20980;-77
2021/06/04 04:52:14;;;;;;;10.33;6.77;;;21.20;35.00;;;;;;4955486;28;20462;-77
2021/06/04 04:54:46;;;;;;;7.13;6.43;;;21.20;34.90;;;;;;4973136;28;20262;-77
2021/06/04 04:57:13;;;;;;;6.73;6.23;;;21.20;35.20;;;;;;4971420;28;20418;-77
2021/06/04 04:59:39;;;;;;;9.70;6.57;;;21.20;35.10;;;;;;4973000;28;20414;-77
2021/06/04 05:02:06;;;;;;;7.13;6.50;;;21.20;35.00;;;;;;4973089;28;20410;-76
2021/06/04 05:04:32;;;;;;;6.53;5.93;;;21.20;34.80;;;;;;4973023;28;20422;-78
2021/06/04 05:06:58;;;;;;;7.13;6.53;;;21.20;34.70;;;;;;4972523;28;20414;-78
2021/06/04 05:09:23;;;;;;;6.57;6.10;;;21.20;34.60;;;;;;4972873;28;20469;-77
2021/06/04 05:11:49;;;;;;;7.20;6.50;;;21.20;34.60;;;;;;4972673;28;20622;-78
2021/06/04 05:14:16;;;;;;;6.53;5.93;;;21.20;34.50;;;;;;4973027;28;20174;-78
2021/06/04 05:16:42;;;;;;;6.83;6.00;;;21.20;34.30;;;;;;4972493;28;20175;-77
2021/06/04 05:19:08;;;;;;;13.50;7.50;;;21.20;34.50;;;;;;4972914;28;20410;-77
2021/06/04 05:21:34;;;;;;;12.10;7.63;;;21.20;34.70;;;;;;4972575;28;20441;-76
2021/06/04 05:24:04;;;;;;;10.80;7.57;;;21.20;35.50;;;;;;4972755;28;20198;-78
2021/06/04 05:26:30;;;;;;;9.20;6.53;;;21.20;36.20;;;;;;4972243;28;20418;-77
2021/06/04 05:28:55;;;;;;;7.33;6.73;;;21.20;36.20;;;;;;4973089;28;20583;-77
2021/06/04 05:31:21;;;;;;;9.80;7.07;;;21.30;35.40;;;;;;4972841;28;20282;-77
2021/06/04 05:33:50;;;;;;;8.20;7.00;;;21.20;36.20;;;;;;4972978;28;20249;-76
2021/06/04 05:36:19;;;;;;;9.90;6.20;;;21.30;36.30;;;;;;4972645;28;20417;-77
2021/06/04 05:38:46;;;;;;;7.43;6.70;;;21.30;36.70;;;;;;4973025;28;20913;-77
2021/06/04 05:41:13;;;;;;;12.03;8.23;;;21.30;37.00;;;;;;4972719;28;21156;-77
2021/06/04 05:43:41;;;;;;;14.33;9.30;;;21.30;37.10;;;;;;4972867;28;20933;-77
2021/06/04 05:46:10;;;;;;;12.77;9.47;;;21.30;36.90;;;;;;4969652;28;20444;-75
2021/06/04 05:48:37;;;;;;;17.93;9.50;;;21.30;37.20;;;;;;4965956;28;20451;-76
2021/06/04 05:51:07;;;;;;;10.07;8.20;;;21.30;38.60;;;;;;4958796;28;20461;-75
2021/06/04 05:53:35;;;;;;;8.80;7.90;;;21.30;37.80;;;;;;4978480;28;20434;-75
2021/06/04 05:56:01;;;;;;;8.33;7.57;;;21.30;38.10;;;;;;4979560;28;20472;-77
2021/06/04 05:58:28;;;;;;;13.33;7.43;;;21.30;38.40;;;;;;4965587;28;20434;-79
2021/06/04 06:00:56;;;;;;;8.30;7.60;;;21.30;38.80;;;;;;4949992;28;20422;-77
2021/06/04 06:03:25;;;;;;;8.23;7.50;;;21.30;39.00;;;;;;4976793;28;20438;-80
2021/06/04 06:05:50;;;;;;;7.70;7.00;;;21.30;39.30;;;;;;4968896;28;20469;-78
2021/06/04 06:08:17;;;;;;;7.80;7.30;;;21.40;39.80;;;;;;4957667;28;20947;-77
2021/06/04 06:10:42;;;;;;;8.30;7.60;;;21.30;39.80;;;;;;4973180;28;20206;-78
2021/06/04 06:13:09;;;;;;;8.23;7.30;;;21.30;40.10;;;;;;4969316;28;20454;-77
2021/06/04 06:15:35;;;;;;;8.37;6.70;;;21.30;41.50;;;;;;4972198;28;20175;-77
2021/06/04 06:18:01;;;;;;;7.00;6.30;;;21.40;40.50;;;;;;4968965;28;20422;-77
2021/06/04 06:20:32;;;;;;;8.53;6.90;;;21.30;39.90;;;;;;4969755;28;20516;-78
2021/06/04 06:22:58;;;;;;;7.83;7.13;;;21.40;40.00;;;;;;4962054;28;20450;-78
2021/06/04 06:25:55;;;;;;;11.80;8.10;;;21.40;40.50;;;;;;4961739;28;20442;-78
2021/06/04 06:28:35;;;;;;;8.13;7.43;;;21.40;41.60;;;;;;4980113;28;20490;-77
2021/06/04 06:31:14;;;;;;;7.97;7.30;;;21.40;40.90;;;;;;4979028;28;20450;-78
2021/06/04 06:33:40;;;;;;;11.03;8.57;;;21.40;41.50;;;;;;4972680;28;20489;-78
2021/06/04 06:36:11;;;;;;;9.43;7.47;;;21.40;41.40;;;;;;4962532;28;20441;-77
2021/06/04 06:42:11;;;;;;;7.40;7.00;;;21.40;41.70;;;;;;4907833;29;20491;-78
2021/06/04 06:45:34;;;;;;;7.33;6.83;;;21.40;42.20;;;;;;4940482;29;20439;-77
2021/06/04 06:48:42;;;;;;;7.80;7.03;;;21.40;41.60;;;;;;4908440;29;20441;-78
2021/06/04 06:51:09;;;;;;;7.13;6.70;;;21.50;41.60;;;;;;4915335;29;20472;-79
2021/06/04 06:53:36;;;;;;;7.40;6.80;;;21.40;41.60;;;;;;4940362;29;20435;-77
2021/06/04 06:56:04;;;;;;;8.60;7.80;;;21.40;41.60;;;;;;4940756;29;20411;-76
2021/06/04 06:58:30;;;;;;;8.33;7.60;;;21.40;41.50;;;;;;4963335;28;20972;-78
2021/06/04 07:00:57;;;;;;;7.53;7.03;;;21.40;41.00;;;;;;4977778;28;20449;-77
2021/06/04 07:03:30;;;;;;;8.40;7.70;;;21.40;41.10;;;;;;4978356;28;20249;-79
2021/06/04 07:06:01;;;;;;;8.67;7.87;;;21.40;41.60;;;;;;4980151;28;20978;-78
2021/06/04 07:08:27;;;;;;;7.60;6.97;;;21.50;40.80;;;;;;4975405;28;20461;-79
2021/06/04 07:10:53;;;;;;;7.37;6.73;;;21.50;41.70;;;;;;4979144;28;20461;-78
2021/06/04 07:13:25;;;;;;;9.20;6.53;;;21.40;41.40;;;;;;4978123;28;20438;-78
2021/06/04 07:15:52;;;;;;;7.73;6.93;;;21.40;41.50;;;;;;4977704;28;20894;-77
2021/06/04 07:18:18;;;;;;;7.63;6.97;;;21.40;41.60;;;;;;4959479;28;20477;-77
2021/06/04 07:20:43;;;;;;;8.27;6.53;;;21.40;40.70;;;;;;4960129;28;20427;-79
2021/06/04 07:23:11;;;;;;;7.30;6.60;;;21.40;40.60;;;;;;4958055;29;20274;-78
2021/06/04 07:25:39;;;;;;;7.47;6.87;;;21.30;40.50;;;;;;4958585;29;20205;-78
2021/06/04 07:28:06;;;;;;;7.90;7.13;;;21.30;40.50;;;;;;4958398;29;20921;-79
2021/06/04 07:30:36;;;;;;;7.40;6.47;;;21.30;40.40;;;;;;4956298;29;20466;-77
2021/06/04 07:33:06;;;;;;;7.50;6.90;;;21.30;40.30;;;;;;4955352;29;20463;-76
2021/06/04 07:35:33;;;;;;;7.50;6.77;;;21.30;40.40;;;;;;4937799;29;20440;-77
2021/06/04 07:37:59;;;;;;;6.73;6.10;;;21.30;40.30;;;;;;4955085;29;20407;-76
2021/06/04 07:40:28;;;;;;;6.93;6.43;;;21.30;40.30;;;;;;4955209;29;20572;-76
2021/06/04 07:42:54;;;;;;;7.43;6.57;;;21.30;40.20;;;;;;4955119;29;20191;-76
2021/06/04 07:45:23;;;;;;;6.90;6.47;;;21.20;40.00;;;;;;4954816;29;20415;-76
2021/06/04 07:47:48;;;;;;;6.73;6.13;;;21.20;40.00;;;;;;4954871;29;20415;-75
2021/06/04 07:50:15;;;;;;;6.47;5.77;;;21.30;39.90;;;;;;4954943;29;20462;-76
2021/06/04 07:52:40;;;;;;;7.07;6.57;;;21.20;39.70;;;;;;4954928;29;20191;-76
2021/06/04 07:55:09;;;;;;;7.00;6.50;;;21.20;39.60;;;;;;4954635;29;20422;-76
2021/06/04 07:57:34;;;;;;;6.63;6.13;;;21.20;39.50;;;;;;4955019;29;20168;-76
2021/06/04 08:00:01;;;;;;;6.73;6.13;;;21.20;39.50;;;;;;4954817;29;20414;-76
2021/06/04 08:02:26;;;;;;;6.83;6.43;;;21.20;39.40;;;;;;4954568;29;20671;-76
2021/06/04 08:04:52;;;;;;;6.80;6.17;;;21.20;39.40;;;;;;4954703;29;20458;-76
2021/06/04 08:07:18;;;;;;;6.43;6.03;;;21.10;39.10;;;;;;4954414;29;20186;-76
2021/06/04 08:09:44;;;;;;;6.33;5.73;;;21.20;39.20;;;;;;4954759;29;20286;-76
2021/06/04 08:12:12;;;;;;;6.37;5.97;;;21.10;39.00;;;;;;4954301;28;20843;-76
2021/06/04 08:14:39;;;;;;;6.23;5.93;;;21.10;38.90;;;;;;4954431;29;20531;-76
2021/06/04 08:17:05;;;;;;;6.57;6.03;;;21.10;38.80;;;;;;4954109;29;20438;-76
2021/06/04 08:19:33;;;;;;;6.10;5.70;;;21.10;38.80;;;;;;4953380;29;20411;-77
2021/06/04 08:25:27;;;;;;;6.87;6.37;;;21.10;38.60;;;;;;4954467;29;20492;-74
2021/06/04 08:27:53;;;;;;;6.43;6.03;;;21.10;38.50;;;;;;4954403;29;20406;-75
2021/06/04 08:30:20;;;;;;;6.47;6.17;;;21.10;38.50;;;;;;4954200;29;20954;-75
2021/06/04 08:32:45;;;;;;;6.50;5.90;;;21.10;38.40;;;;;;4954247;29;20206;-76
2021/06/04 08:35:13;;;;;;;5.67;5.37;;;21.10;38.40;;;;;;4954256;29;20493;-75
2021/06/04 08:37:40;;;;;;;6.67;6.17;;;21.10;38.30;;;;;;4954346;29;20175;-75
2021/06/04 08:40:11;;;;;;;6.33;5.93;;;21.10;38.20;;;;;;4954140;29;20407;-75
2021/06/04 08:42:45;;;;;;;6.27;5.60;;;21.10;38.20;;;;;;4954216;29;20435;-75
2021/06/04 08:45:51;;;;;;;6.50;6.10;;;21.10;38.20;;;;;;4954066;29;20454;-75
2021/06/04 08:48:35;;;;;;;7.10;6.60;;;21.10;38.10;;;;;;4953924;29;20442;-76
2021/06/04 08:51:30;;;;;;;5.77;5.37;;;21.10;38.00;;;;;;4954032;29;20861;-75
2021/06/04 08:53:56;;;;;;;6.00;5.60;;;21.10;37.90;;;;;;4953999;29;20522;-76
2021/06/04 08:56:36;;;;;;;6.00;5.60;;;21.10;37.90;;;;;;4936576;29;20547;-75
2021/06/04 08:59:07;;;;;;;7.07;6.57;;;21.10;37.90;;;;;;4953996;29;20597;-75
2021/06/04 09:01:44;;;;;;;6.20;5.70;;;21.10;37.80;;;;;;4953825;29;20446;-76
2021/06/04 09:04:15;;;;;;;5.90;5.40;;;21.10;37.80;;;;;;4937233;29;20838;-75
2021/06/04 09:06:48;;;;;;;6.53;6.13;;;21.10;37.70;;;;;;4953723;29;20414;-75
2021/06/04 09:09:31;;;;;;;6.47;6.03;;;21.10;37.70;;;;;;4953809;29;20407;-75
2021/06/04 09:12:00;;;;;;;6.17;5.77;;;21.10;37.70;;;;;;4953822;29;20422;-74
2021/06/04 09:14:27;;;;;;;5.90;5.60;;;21.10;37.70;;;;;;4953774;29;20410;-75
2021/06/04 09:16:55;;;;;;;6.63;6.10;;;21.10;37.60;;;;;;4953822;29;20411;-75
2021/06/04 09:19:34;;;;;;;6.60;6.20;;;21.10;37.50;;;;;;4954445;29;20426;-75
2021/06/04 09:22:01;;;;;;;5.90;5.40;;;21.00;37.40;;;;;;4955194;29;20406;-75
2021/06/04 09:24:47;;;;;;;5.93;5.63;;;21.00;37.40;;;;;;4957733;28;20409;-75
2021/06/04 09:27:41;;;;;;;6.40;5.90;;;21.10;37.40;;;;;;4958476;29;20468;-75
2021/06/04 09:30:26;;;;;;;6.00;5.50;;;21.10;37.30;;;;;;4957524;29;20545;-76
2021/06/04 09:33:18;;;;;;;5.87;5.57;;;21.10;37.20;;;;;;4956024;28;20438;-75
2021/06/04 09:35:58;;;;;;;5.63;5.33;;;21.10;37.20;;;;;;4957290;29;20478;-75
2021/06/04 09:38:32;;;;;;;5.53;5.23;;;21.10;37.20;;;;;;4957324;29;21347;-75
2021/06/04 09:41:24;;;;;;;5.70;5.17;;;21.00;37.00;;;;;;4957369;29;20917;-75
2021/06/04 09:44:11;;;;;;;5.57;5.27;;;21.00;37.00;;;;;;4957296;29;20545;-76
2021/06/04 09:46:59;;;;;;;5.43;5.13;;;21.00;36.90;;;;;;4943265;28;21134;-76
2021/06/04 09:49:29;;;;;;;6.10;5.80;;;21.10;36.90;;;;;;4956946;29;20422;-75
2021/06/04 09:52:13;;;;;;;6.40;5.77;;;21.10;36.90;;;;;;4956922;29;21072;-75
2021/06/04 09:54:38;;;;;;;5.67;5.27;;;21.00;36.90;;;;;;4957520;29;20762;-76
2021/06/04 09:57:07;;;;;;;5.80;5.40;;;21.00;36.60;;;;;;4956866;29;20419;-76
2021/06/04 09:59:33;;;;;;;6.37;5.93;;;21.10;36.90;;;;;;4957215;29;20179;-76
2021/06/04 10:01:59;;;;;;;5.93;5.50;;;21.20;39.20;;;;;;4955912;29;20944;-78
2021/06/04 10:04:32;;;;;;;6.03;5.63;;;21.30;39.40;;;;;;4956728;29;20411;-76
2021/06/04 10:07:26;;;;;;;6.40;5.80;;;21.30;39.60;;;;;;4957052;29;20160;-76
2021/06/04 10:09:52;;;;;;;6.13;5.73;;;21.30;39.30;;;;;;4956728;28;20503;-76
2021/06/04 10:12:41;;;;;;;6.90;6.40;;;21.30;38.90;;;;;;4956718;29;21000;-77
2021/06/04 10:15:21;;;;;;;5.67;5.37;;;21.40;39.40;;;;;;4957049;29;20199;-77
2021/06/04 10:20:46;;;;;;;5.43;5.13;;;21.40;39.40;;;;;;4957047;29;20415;-77
2021/06/04 10:23:34;;;;;;;5.87;5.50;;;21.40;39.60;;;;;;4956668;29;20829;-76
2021/06/04 10:26:34;;;;;;;6.73;5.40;;;21.40;39.10;;;;;;4956926;29;20439;-76
2021/06/04 10:29:09;;;;;;;5.03;4.77;;;21.40;38.40;;;;;;4923894;29;20524;-77
2021/06/04 10:31:37;;;;;;;6.67;6.07;;;21.30;38.30;;;;;;4956422;29;20963;-77
2021/06/04 10:34:21;;;;;;;6.87;6.17;;;21.40;38.60;;;;;;4956714;29;20562;-77
2021/06/04 10:36:54;;;;;;;6.50;6.10;;;21.40;39.40;;;;;;4966957;28;20411;-77
2021/06/04 10:39:54;;;;;;;6.93;6.23;;;21.40;39.60;;;;;;4975660;28;20923;-77
2021/06/04 10:42:41;;;;;;;6.23;5.83;;;21.50;40.40;;;;;;4962291;28;20509;-77
2021/06/04 10:45:15;;;;;;;6.83;6.43;;;21.50;40.00;;;;;;4975244;28;20409;-76
2021/06/04 10:48:09;;;;;;;6.50;6.10;;;21.50;40.00;;;;;;4975552;28;20401;-77
2021/06/04 10:50:40;;;;;;;6.07;5.67;;;21.50;40.10;;;;;;4976104;28;20453;-77
2021/06/04 10:53:15;;;;;;;6.80;6.30;;;21.60;40.10;;;;;;4975374;28;20437;-77
2021/06/04 10:55:44;;;;;;;7.43;6.60;;;21.60;40.10;;;;;;4975462;28;20504;-77
2021/06/04 10:58:28;;;;;;;6.87;6.47;;;21.60;40.20;;;;;;4975216;28;20772;-77
2021/06/04 11:00:59;;;;;;;6.60;6.10;;;21.60;40.50;;;;;;4975684;28;20476;-77
2021/06/04 11:03:48;;;;;;;6.90;6.50;;;21.60;40.10;;;;;;4975499;28;20492;-77
2021/06/04 11:06:29;;;;;;;6.30;5.90;;;21.60;40.10;;;;;;4975519;28;20501;-77
2021/06/04 11:09:10;;;;;;;6.90;6.20;;;21.60;40.40;;;;;;4975250;28;20456;-77
2021/06/04 11:11:39;;;;;;;6.30;6.00;;;21.60;40.20;;;;;;4975064;28;20420;-77
2021/06/04 11:14:48;;;;;;;6.50;6.00;;;21.60;40.40;;;;;;4974969;28;20843;-77
2021/06/04 11:17:43;;;;;;;6.93;6.53;;;21.60;41.10;;;;;;4942657;28;20435;-77
2021/06/04 11:20:14;;;;;;;7.03;6.43;;;21.70;40.60;;;;;;4936376;29;20435;-78
2021/06/04 11:23:09;;;;;;;6.23;5.80;;;21.60;40.50;;;;;;4935987;29;20435;-77
2021/06/04 11:25:57;;;;;;;6.37;6.00;;;21.60;40.70;;;;;;4936089;29;20440;-77
2021/06/04 11:28:42;;;;;;;6.60;6.10;;;21.60;40.20;;;;;;4936035;29;20408;-77
2021/06/04 11:31:17;;;;;;;8.50;7.60;;;21.60;40.20;;;;;;4934886;29;20520;-77
2021/06/04 11:33:50;;;;;;;11.47;8.93;;;21.60;43.00;;;;;;4935882;29;20431;-76
2021/06/04 11:36:18;;;;;;;9.00;8.20;;;21.70;44.40;;;;;;4936047;29;20855;-77
2021/06/04 11:38:53;;;;;;;8.97;8.17;;;21.70;42.40;;;;;;4935924;29;20507;-78
2021/06/04 11:41:26;;;;;;;7.23;6.70;;;21.70;42.90;;;;;;4935973;29;20796;-78
2021/06/04 11:44:14;;;;;;;8.67;7.40;;;21.70;42.90;;;;;;4935839;29;20819;-76
2021/06/04 11:46:40;;;;;;;7.73;7.00;;;21.70;41.80;;;;;;4934981;29;20466;-76
2021/06/04 11:49:14;;;;;;;8.30;7.80;;;21.70;43.40;;;;;;4935914;29;20451;-77
2021/06/04 11:51:51;;;;;;;8.67;7.97;;;21.70;45.00;;;;;;4918854;29;20647;-77
2021/06/04 11:54:34;;;;;;;7.20;6.70;;;21.70;46.00;;;;;;4935821;29;20426;-77
2021/06/04 11:57:11;;;;;;;7.80;6.93;;;21.70;47.70;;;;;;4918440;29;20408;-76
2021/06/04 11:59:43;;;;;;;7.57;6.93;;;21.70;45.90;;;;;;4935873;29;20788;-76
2021/06/04 12:02:09;;;;;;;8.60;8.10;;;21.80;45.60;;;;;;4935568;29;20521;-76
2021/06/04 12:04:35;;;;;;;7.70;7.00;;;21.70;44.60;;;;;;4935355;29;20491;-76
2021/06/04 12:07:40;;;;;;;7.53;6.90;;;21.70;43.70;;;;;;4971615;28;20445;-77
2021/06/04 12:10:08;;;;;;;8.43;7.33;;;21.70;43.60;;;;;;4973208;28;20458;-77
2021/06/04 12:12:38;;;;;;;8.13;7.43;;;21.70;43.10;;;;;;4956037;28;20430;-77
2021/06/04 12:15:07;;;;;;;7.97;7.20;;;21.70;42.80;;;;;;4974318;28;20433;-76
2021/06/04 12:17:33;;;;;;;9.10;8.33;;;21.70;42.50;;;;;;4974481;28;20435;-75
2021/06/04 12:20:14;;;;;;;7.87;7.17;;;21.70;42.20;;;;;;4974209;28;20415;-76
2021/06/04 12:22:46;;;;;;;7.80;7.20;;;21.70;41.80;;;;;;4974923;28;20921;-77
2021/06/04 12:25:12;;;;;;;7.47;6.97;;;21.70;41.80;;;;;;4974638;28;20446;-76
2021/06/04 12:27:59;;;;;;;8.07;7.47;;;21.70;41.80;;;;;;4974302;28;20413;-76
2021/06/04 12:30:55;;;;;;;8.40;7.90;;;21.70;41.80;;;;;;4974271;28;20198;-76
2021/06/04 12:33:45;;;;;;;7.73;6.97;;;21.70;41.80;;;;;;4974164;28;20418;-76
2021/06/04 12:36:50;;;;;;;7.83;7.23;;;21.70;41.50;;;;;;4974435;28;20442;-76
2021/06/04 12:39:22;;;;;;;8.47;7.80;;;21.60;41.30;;;;;;4974226;28;20501;-76
2021/06/04 12:42:09;;;;;;;7.90;7.30;;;21.60;41.10;;;;;;4974092;28;20409;-75
2021/06/04 12:44:36;;;;;;;7.87;7.27;;;21.60;41.10;;;;;;4957046;28;20832;-76
2021/06/04 12:47:04;;;;;;;7.60;7.10;;;21.60;40.80;;;;;;4974240;28;20406;-77
2021/06/04 12:49:30;;;;;;;8.57;7.00;;;21.60;40.60;;;;;;4974619;28;20441;-76
2021/06/04 12:51:55;;;;;;;7.33;6.83;;;21.60;40.50;;;;;;4975015;28;20840;-75
2021/06/04 12:54:25;;;;;;;7.73;7.20;;;21.60;40.30;;;;;;4974198;28;20517;-75
2021/06/04 12:56:54;;;;;;;7.43;6.93;;;21.60;40.30;;;;;;4973168;28;20217;-76
2021/06/04 12:59:23;;;;;;;7.50;7.00;;;21.60;40.40;;;;;;4972659;28;20456;-76
2021/06/04 13:02:00;;;;;;;7.40;6.80;;;21.60;40.20;;;;;;4973383;28;20422;-76
2021/06/04 13:04:34;;;;;;;7.70;6.63;;;21.60;40.30;;;;;;4973568;28;20936;-77
2021/06/04 13:07:02;;;;;;;7.37;6.83;;;21.60;40.00;;;;;;4973057;28;20429;-78
2021/06/04 13:09:36;;;;;;;7.20;6.70;;;21.60;39.90;;;;;;4973619;28;20406;-78
2021/06/04 13:12:23;;;;;;;6.90;6.30;;;21.60;40.00;;;;;;4973600;28;20421;-77
2021/06/04 13:14:52;;;;;;;7.23;6.67;;;21.60;40.00;;;;;;4973289;28;20493;-78
2021/06/04 13:17:30;;;;;;;7.50;6.87;;;21.50;39.60;;;;;;4973506;28;20458;-76
2021/06/04 13:20:12;;;;;;;7.13;6.57;;;21.60;39.80;;;;;;4966450;28;20434;-76
2021/06/04 13:22:45;;;;;;;7.23;6.67;;;21.60;39.70;;;;;;4963111;28;20469;-79
2021/06/04 13:25:24;;;;;;;7.87;7.37;;;21.60;39.70;;;;;;4974624;28;20433;-77